createdAt,value
2023-05-21T00:00:48.300Z,469.00
2023-05-21T00:01:48.716Z,470.00
2023-05-21T00:02:48.330Z,471.00
2023-05-21T00:03:48.442Z,472.00
2023-05-21T00:04:48.408Z,472.00
2023-05-21T00:05:47.474Z,474.00
2023-05-21T00:06:48.432Z,476.00
2023-05-21T00:07:47.334Z,473.00
2023-05-21T00:08:47.324Z,475.00
2023-05-21T00:09:48.521Z,476.00
2023-05-21T00:10:47.499Z,478.00
2023-05-21T00:11:48.431Z,479.00
2023-05-21T00:12:48.369Z,478.00
2023-05-21T00:13:48.501Z,480.00
2023-05-21T00:14:48.599Z,480.00
2023-05-21T00:15:48.369Z,479.00
2023-05-21T00:16:48.460Z,482.00
2023-05-21T00:17:48.438Z,483.00
2023-05-21T00:18:47.542Z,482.00
2023-05-21T00:19:47.622Z,482.00
2023-05-21T00:20:47.559Z,480.00
2023-05-21T00:21:48.635Z,481.00
2023-05-21T00:22:47.665Z,482.00
2023-05-21T00:23:48.461Z,479.00
2023-05-21T00:24:47.635Z,480.00
2023-05-21T00:25:47.471Z,483.00
2023-05-21T00:26:48.659Z,485.00
2023-05-21T00:27:48.632Z,486.00
2023-05-21T00:28:47.523Z,484.00
2023-05-21T00:29:47.529Z,483.00
2023-05-21T00:30:47.622Z,484.00
2023-05-21T00:31:47.642Z,483.00
2023-05-21T00:32:48.580Z,482.00
2023-05-21T00:33:47.729Z,482.00
2023-05-21T00:34:47.666Z,483.00
2023-05-21T00:35:47.884Z,483.00
2023-05-21T00:36:47.822Z,485.00
2023-05-21T00:37:47.779Z,484.00
2023-05-21T00:38:47.915Z,484.00
2023-05-21T00:39:47.655Z,484.00
2023-05-21T00:40:48.878Z,482.00
2023-05-21T00:41:48.730Z,480.00
2023-05-21T00:42:47.793Z,478.00
2023-05-21T00:43:48.666Z,480.00
2023-05-21T00:44:47.680Z,480.00
2023-05-21T00:45:48.798Z,478.00
2023-05-21T00:46:47.760Z,476.00
2023-05-21T00:47:47.882Z,478.00
2023-05-21T00:48:47.744Z,478.00
2023-05-21T00:49:47.781Z,481.00
2023-05-21T00:50:49.025Z,481.00
2023-05-21T00:51:49.029Z,481.00
2023-05-21T00:52:47.942Z,483.00
2023-05-21T00:53:48.895Z,484.00
2023-05-21T00:54:48.074Z,485.00
2023-05-21T00:55:48.891Z,485.00
2023-05-21T00:56:49.147Z,486.00
2023-05-21T00:57:47.873Z,488.00
2023-05-21T00:58:48.894Z,486.00
2023-05-21T00:59:48.875Z,484.00
2023-05-21T01:00:47.851Z,485.00
2023-05-21T01:01:48.428Z,488.00
2023-05-21T01:02:49.122Z,489.00
2023-05-21T01:03:48.109Z,487.00
2023-05-21T01:04:49.153Z,485.00
2023-05-21T01:05:48.008Z,484.00
2023-05-21T01:06:49.045Z,481.00
2023-05-21T01:07:48.168Z,479.00
2023-05-21T01:08:47.972Z,478.00
2023-05-21T01:09:49.141Z,480.00
2023-05-21T01:10:48.980Z,479.00
2023-05-21T01:11:48.036Z,485.00
2023-05-21T01:12:48.096Z,488.00
2023-05-21T01:13:49.025Z,486.00
2023-05-21T01:14:48.060Z,489.00
2023-05-21T01:15:49.059Z,487.00
2023-05-21T01:16:49.332Z,486.00
2023-05-21T01:17:49.321Z,483.00
2023-05-21T01:18:48.164Z,483.00
2023-05-21T01:19:49.421Z,485.00
2023-05-21T01:20:48.133Z,486.00
2023-05-21T01:21:48.269Z,486.00
2023-05-21T01:22:48.142Z,484.00
2023-05-21T01:23:49.212Z,485.00
2023-05-21T01:24:48.171Z,488.00
2023-05-21T01:25:48.439Z,487.00
2023-05-21T01:26:49.448Z,485.00
2023-05-21T01:27:48.219Z,488.00
2023-05-21T01:28:48.465Z,490.00
2023-05-21T01:29:49.463Z,488.00
2023-05-21T01:30:48.276Z,486.00
2023-05-21T01:31:49.477Z,481.00
2023-05-21T01:32:48.450Z,481.00
2023-05-21T01:33:48.472Z,482.00
2023-05-21T01:34:49.376Z,481.00
2023-05-21T01:35:48.324Z,483.00
2023-05-21T01:36:48.417Z,483.00
2023-05-21T01:37:49.627Z,483.00
2023-05-21T01:38:48.384Z,482.00
2023-05-21T01:39:49.456Z,485.00
2023-05-21T01:40:49.463Z,486.00
2023-05-21T01:41:48.477Z,487.00
2023-05-21T01:42:48.502Z,490.00
2023-05-21T01:43:48.729Z,489.00
2023-05-21T01:44:49.578Z,486.00
2023-05-21T01:45:49.519Z,485.00
2023-05-21T01:46:48.683Z,482.00
2023-05-21T01:47:49.557Z,480.00
2023-05-21T01:48:48.647Z,479.00
2023-05-21T01:49:48.659Z,479.00
2023-05-21T01:50:48.630Z,481.00
2023-05-21T01:51:48.799Z,479.00
2023-05-21T01:52:48.668Z,479.00
2023-05-21T01:53:48.663Z,478.00
2023-05-21T01:54:48.883Z,481.00
2023-05-21T01:55:49.863Z,482.00
2023-05-21T01:56:48.715Z,480.00
2023-05-21T01:57:49.790Z,482.00
2023-05-21T01:58:49.756Z,482.00
2023-05-21T01:59:48.825Z,483.00
2023-05-21T02:00:48.805Z,485.00
2023-05-21T02:01:49.022Z,485.00
2023-05-21T02:02:50.279Z,486.00
2023-05-21T02:03:49.226Z,489.00
2023-05-21T02:04:50.168Z,490.00
2023-05-21T02:05:50.041Z,490.00
2023-05-21T02:06:49.959Z,488.00
2023-05-21T02:07:50.032Z,487.00
2023-05-21T02:08:50.199Z,490.00
2023-05-21T02:09:50.285Z,493.00
2023-05-21T02:10:50.193Z,495.00
2023-05-21T02:11:49.080Z,494.00
2023-05-21T02:12:49.060Z,493.00
2023-05-21T02:13:50.251Z,492.00
2023-05-21T02:14:49.298Z,493.00
2023-05-21T02:15:49.162Z,493.00
2023-05-21T02:16:50.350Z,491.00
2023-05-21T02:17:49.210Z,490.00
2023-05-21T02:18:50.279Z,490.00
2023-05-21T02:19:49.162Z,487.00
2023-05-21T02:20:49.206Z,487.00
2023-05-21T02:21:49.250Z,489.00
2023-05-21T02:22:49.367Z,487.00
2023-05-21T02:23:49.294Z,484.00
2023-05-21T02:24:49.323Z,485.00
2023-05-21T02:25:50.292Z,482.00
2023-05-21T02:26:50.446Z,484.00
2023-05-21T02:27:49.608Z,485.00
2023-05-21T02:28:49.366Z,485.00
2023-05-21T02:29:49.520Z,484.00
2023-05-21T02:30:50.398Z,486.00
2023-05-21T02:31:49.407Z,485.00
2023-05-21T02:32:49.460Z,487.00
2023-05-21T02:33:50.540Z,485.00
2023-05-21T02:34:49.507Z,484.00
2023-05-21T02:35:49.789Z,483.00
2023-05-21T02:36:49.723Z,485.00
2023-05-21T02:37:50.669Z,486.00
2023-05-21T02:38:50.556Z,485.00
2023-05-21T02:39:50.731Z,482.00
2023-05-21T02:40:49.723Z,485.00
2023-05-21T02:41:50.863Z,484.00
2023-05-21T02:42:49.982Z,482.00
2023-05-21T02:43:50.756Z,483.00
2023-05-21T02:44:50.766Z,482.00
2023-05-21T02:45:51.017Z,486.00
2023-05-21T02:46:50.767Z,485.00
2023-05-21T02:47:49.901Z,486.00
2023-05-21T02:48:49.872Z,486.00
2023-05-21T02:49:50.102Z,488.00
2023-05-21T02:50:50.090Z,490.00
2023-05-21T02:51:50.880Z,493.00
2023-05-21T02:52:50.911Z,492.00
2023-05-21T02:53:49.904Z,496.00
2023-05-21T02:54:51.014Z,495.00
2023-05-21T02:55:49.964Z,494.00
2023-05-21T02:56:49.969Z,495.00
2023-05-21T02:57:51.200Z,493.00
2023-05-21T02:58:51.055Z,493.00
2023-05-21T02:59:51.017Z,490.00
2023-05-21T03:00:50.036Z,489.00
2023-05-21T03:01:50.202Z,487.00
2023-05-21T03:02:50.235Z,482.00
2023-05-21T03:03:50.292Z,486.00
2023-05-21T03:04:51.306Z,484.00
2023-05-21T03:05:50.390Z,487.00
2023-05-21T03:06:50.227Z,488.00
2023-05-21T03:07:50.311Z,489.00
2023-05-21T03:08:50.313Z,491.00
2023-05-21T03:09:51.410Z,490.00
2023-05-21T03:10:51.472Z,492.00
2023-05-21T03:11:50.295Z,491.00
2023-05-21T03:12:51.296Z,489.00
2023-05-21T03:13:50.466Z,487.00
2023-05-21T03:14:51.538Z,486.00
2023-05-21T03:15:51.348Z,487.00
2023-05-21T03:16:50.346Z,487.00
2023-05-21T03:17:50.632Z,486.00
2023-05-21T03:18:51.634Z,487.00
2023-05-21T03:19:51.432Z,486.00
2023-05-21T03:20:51.438Z,488.00
2023-05-21T03:21:50.549Z,489.00
2023-05-21T03:22:50.449Z,492.00
2023-05-21T03:23:51.500Z,494.00
2023-05-21T03:24:50.512Z,492.00
2023-05-21T03:25:50.576Z,488.00
2023-05-21T03:26:50.620Z,491.00
2023-05-21T03:27:50.607Z,490.00
2023-05-21T03:28:50.676Z,494.00
2023-05-21T03:29:50.616Z,495.00
2023-05-21T03:30:50.632Z,495.00
2023-05-21T03:31:51.785Z,498.00
2023-05-21T03:32:51.876Z,495.00
2023-05-21T03:33:51.791Z,495.00
2023-05-21T03:34:50.698Z,496.00
2023-05-21T03:35:51.710Z,497.00
2023-05-21T03:36:50.730Z,498.00
2023-05-21T03:37:50.777Z,499.00
2023-05-21T03:38:50.813Z,497.00
2023-05-21T03:39:50.802Z,496.00
2023-05-21T03:40:51.820Z,494.00
2023-05-21T03:41:51.869Z,491.00
2023-05-21T03:42:51.164Z,491.00
2023-05-21T03:43:52.206Z,490.00
2023-05-21T03:44:52.068Z,490.00
2023-05-21T03:45:51.975Z,490.00
2023-05-21T03:46:51.022Z,489.00
2023-05-21T03:47:51.315Z,489.00
2023-05-21T03:48:52.051Z,488.00
2023-05-21T03:49:52.071Z,489.00
2023-05-21T03:50:51.078Z,488.00
2023-05-21T03:51:52.082Z,487.00
2023-05-21T03:52:51.230Z,484.00
2023-05-21T03:53:52.214Z,485.00
2023-05-21T03:54:51.260Z,488.00
2023-05-21T03:55:52.317Z,487.00
2023-05-21T03:56:51.701Z,485.00
2023-05-21T03:57:51.229Z,484.00
2023-05-21T03:58:52.395Z,481.00
2023-05-21T03:59:52.282Z,481.00
2023-05-21T04:00:52.277Z,483.00
2023-05-21T04:01:51.404Z,483.00
2023-05-21T04:02:52.619Z,483.00
2023-05-21T04:03:52.788Z,485.00
2023-05-21T04:04:51.549Z,485.00
2023-05-21T04:05:51.393Z,486.00
2023-05-21T04:06:52.524Z,489.00
2023-05-21T04:07:51.420Z,488.00
2023-05-21T04:08:52.466Z,489.00
2023-05-21T04:09:51.653Z,490.00
2023-05-21T04:10:51.562Z,489.00
2023-05-21T04:11:52.522Z,491.00
2023-05-21T04:12:52.756Z,490.00
2023-05-21T04:13:51.570Z,489.00
2023-05-21T04:14:52.823Z,490.00
2023-05-21T04:15:51.648Z,490.00
2023-05-21T04:16:51.894Z,489.00
2023-05-21T04:17:52.780Z,489.00
2023-05-21T04:18:52.736Z,489.00
2023-05-21T04:19:52.776Z,491.00
2023-05-21T04:20:51.745Z,493.00
2023-05-21T04:21:52.006Z,491.00
2023-05-21T04:22:52.798Z,491.00
2023-05-21T04:23:51.797Z,490.00
2023-05-21T04:24:51.869Z,490.00
2023-05-21T04:25:51.952Z,489.00
2023-05-21T04:26:51.901Z,489.00
2023-05-21T04:27:51.909Z,491.00
2023-05-21T04:28:51.944Z,492.00
2023-05-21T04:29:51.966Z,492.00
2023-05-21T04:30:52.237Z,490.00
2023-05-21T04:31:52.135Z,489.00
2023-05-21T04:32:52.095Z,489.00
2023-05-21T04:33:53.302Z,486.00
2023-05-21T04:34:53.313Z,484.00
2023-05-21T04:35:53.135Z,486.00
2023-05-21T04:36:52.170Z,489.00
2023-05-21T04:37:53.220Z,486.00
2023-05-21T04:38:52.472Z,486.00
2023-05-21T04:39:52.393Z,487.00
2023-05-21T04:40:53.468Z,488.00
2023-05-21T04:41:52.217Z,490.00
2023-05-21T04:42:53.259Z,490.00
2023-05-21T04:43:52.547Z,491.00
2023-05-21T04:44:53.301Z,489.00
2023-05-21T04:45:53.378Z,490.00
2023-05-21T04:46:52.407Z,489.00
2023-05-21T04:47:53.394Z,492.00
2023-05-21T04:48:53.389Z,494.00
2023-05-21T04:49:52.507Z,494.00
2023-05-21T04:50:52.555Z,493.00
2023-05-21T04:51:53.648Z,490.00
2023-05-21T04:52:53.587Z,490.00
2023-05-21T04:53:52.652Z,489.00
2023-05-21T04:54:52.650Z,489.00
2023-05-21T04:55:52.682Z,489.00
2023-05-21T04:56:53.538Z,491.00
2023-05-21T04:57:53.677Z,491.00
2023-05-21T04:58:53.847Z,492.00
2023-05-21T04:59:52.633Z,493.00
2023-05-21T05:00:53.692Z,498.00
2023-05-21T05:01:53.758Z,495.00
2023-05-21T05:02:53.710Z,497.00
2023-05-21T05:03:53.696Z,494.00
2023-05-21T05:04:53.728Z,496.00
2023-05-21T05:05:53.841Z,496.00
2023-05-21T05:06:52.836Z,497.00
2023-05-21T05:07:52.925Z,497.00
2023-05-21T05:08:54.097Z,495.00
2023-05-21T05:09:53.907Z,493.00
2023-05-21T05:10:52.950Z,495.00
2023-05-21T05:11:53.101Z,497.00
2023-05-21T05:12:53.078Z,497.00
2023-05-21T05:13:54.359Z,498.00
2023-05-21T05:14:53.935Z,497.00
2023-05-21T05:15:54.588Z,499.00
2023-05-21T05:16:54.093Z,500.00
2023-05-21T05:17:54.285Z,496.00
2023-05-21T05:18:53.088Z,496.00
2023-05-21T05:19:54.169Z,495.00
2023-05-21T05:20:53.218Z,495.00
2023-05-21T05:21:53.315Z,493.00
2023-05-21T05:22:54.188Z,492.00
2023-05-21T05:23:53.086Z,491.00
2023-05-21T05:24:53.203Z,494.00
2023-05-21T05:25:54.328Z,496.00
2023-05-21T05:26:53.269Z,499.00
2023-05-21T05:27:54.422Z,500.00
2023-05-21T05:28:54.179Z,501.00
2023-05-21T05:29:53.294Z,498.00
2023-05-21T05:30:53.226Z,497.00
2023-05-21T05:31:53.204Z,497.00
2023-05-21T05:32:53.248Z,498.00
2023-05-21T05:33:53.272Z,497.00
2023-05-21T05:34:54.416Z,495.00
2023-05-21T05:35:53.491Z,495.00
2023-05-21T05:36:53.480Z,496.00
2023-05-21T05:37:53.638Z,497.00
2023-05-21T05:38:53.381Z,495.00
2023-05-21T05:39:53.431Z,495.00
2023-05-21T05:40:53.622Z,494.00
2023-05-21T05:41:53.554Z,495.00
2023-05-21T05:42:54.545Z,496.00
2023-05-21T05:43:53.529Z,495.00
2023-05-21T05:44:53.554Z,499.00
2023-05-21T05:45:54.652Z,499.00
2023-05-21T05:46:53.628Z,501.00
2023-05-21T05:47:53.666Z,501.00
2023-05-21T05:48:53.825Z,500.00
2023-05-21T05:49:53.738Z,503.00
2023-05-21T05:50:54.814Z,501.00
2023-05-21T05:51:53.660Z,500.00
2023-05-21T05:52:54.721Z,502.00
2023-05-21T05:53:54.953Z,501.00
2023-05-21T05:54:53.873Z,500.00
2023-05-21T05:55:54.713Z,500.00
2023-05-21T05:56:53.806Z,500.00
2023-05-21T05:57:53.806Z,501.00
2023-05-21T05:58:54.050Z,499.00
2023-05-21T05:59:53.805Z,499.00
2023-05-21T06:00:55.029Z,500.00
2023-05-21T06:01:53.830Z,500.00
2023-05-21T06:02:55.077Z,498.00
2023-05-21T06:03:54.921Z,497.00
2023-05-21T06:04:53.878Z,498.00
2023-05-21T06:05:54.972Z,501.00
2023-05-21T06:06:53.940Z,500.00
2023-05-21T06:07:54.925Z,500.00
2023-05-21T06:08:53.883Z,500.00
2023-05-21T06:09:54.974Z,500.00
2023-05-21T06:10:54.892Z,499.00
2023-05-21T06:11:54.963Z,495.00
2023-05-21T06:12:53.978Z,496.00
2023-05-21T06:13:54.248Z,495.00
2023-05-21T06:14:55.090Z,496.00
2023-05-21T06:15:54.024Z,497.00
2023-05-21T06:16:54.087Z,499.00
2023-05-21T06:17:55.142Z,496.00
2023-05-21T06:18:55.222Z,498.00
2023-05-21T06:19:55.129Z,497.00
2023-05-21T06:20:54.065Z,496.00
2023-05-21T06:21:54.148Z,497.00
2023-05-21T06:22:55.155Z,495.00
2023-05-21T06:23:54.222Z,495.00
2023-05-21T06:24:54.244Z,495.00
2023-05-21T06:25:55.264Z,495.00
2023-05-21T06:26:54.271Z,496.00
2023-05-21T06:27:54.439Z,496.00
2023-05-21T06:28:54.360Z,496.00
2023-05-21T06:29:54.437Z,498.00
2023-05-21T06:30:54.455Z,497.00
2023-05-21T06:31:55.554Z,496.00
2023-05-21T06:32:55.566Z,497.00
2023-05-21T06:33:54.917Z,498.00
2023-05-21T06:34:55.687Z,500.00
2023-05-21T06:35:55.927Z,498.00
2023-05-21T06:36:55.811Z,497.00
2023-05-21T06:37:54.822Z,500.00
2023-05-21T06:38:54.828Z,498.00
2023-05-21T06:39:55.880Z,499.00
2023-05-21T06:40:56.012Z,500.00
2023-05-21T06:41:56.096Z,496.00
2023-05-21T06:42:56.007Z,494.00
2023-05-21T06:43:55.178Z,496.00
2023-05-21T06:44:56.253Z,498.00
2023-05-21T06:45:55.153Z,496.00
2023-05-21T06:46:55.209Z,495.00
2023-05-21T06:47:55.278Z,496.00
2023-05-21T06:48:55.579Z,493.00
2023-05-21T06:49:55.424Z,493.00
2023-05-21T06:50:56.370Z,490.00
2023-05-21T06:51:55.439Z,491.00
2023-05-21T06:52:55.686Z,490.00
2023-05-21T06:53:56.642Z,494.00
2023-05-21T06:54:56.674Z,491.00
2023-05-21T06:55:56.621Z,492.00
2023-05-21T06:56:55.681Z,493.00
2023-05-21T06:57:55.787Z,494.00
2023-05-21T06:58:56.847Z,497.00
2023-05-21T06:59:55.832Z,499.00
2023-05-21T07:00:57.115Z,500.00
2023-05-21T07:01:55.996Z,502.00
2023-05-21T07:02:56.038Z,501.00
2023-05-21T07:03:56.031Z,498.00
2023-05-21T07:04:57.206Z,498.00
2023-05-21T07:05:56.124Z,498.00
2023-05-21T07:06:57.324Z,499.00
2023-05-21T07:07:57.394Z,499.00
2023-05-21T07:08:56.249Z,497.00
2023-05-21T07:09:57.400Z,497.00
2023-05-21T07:10:57.306Z,495.00
2023-05-21T07:11:56.514Z,495.00
2023-05-21T07:12:56.400Z,496.00
2023-05-21T07:14:46.158Z,513.00
2023-05-21T07:15:45.988Z,508.00
2023-05-21T07:16:47.187Z,506.00
2023-05-21T07:17:47.079Z,504.00
2023-05-21T07:18:45.961Z,503.00
2023-05-21T07:19:45.889Z,501.00
2023-05-21T07:20:47.012Z,499.00
2023-05-21T07:21:45.978Z,498.00
2023-05-21T07:22:45.847Z,497.00
2023-05-21T07:23:45.976Z,495.00
2023-05-21T07:24:47.178Z,498.00
2023-05-21T07:25:46.841Z,500.00
2023-05-21T07:26:45.847Z,501.00
2023-05-21T07:27:45.856Z,499.00
2023-05-21T07:28:45.954Z,500.00
2023-05-21T07:29:47.147Z,500.00
2023-05-21T07:30:47.053Z,501.00
2023-05-21T07:31:45.987Z,499.00
2023-05-21T07:32:45.886Z,498.00
2023-05-21T07:33:46.789Z,499.00
2023-05-21T07:34:45.804Z,500.00
2023-05-21T07:35:45.803Z,503.00
2023-05-21T07:36:45.805Z,502.00
2023-05-21T07:37:46.848Z,500.00
2023-05-21T07:38:45.908Z,500.00
2023-05-21T07:39:46.086Z,500.00
2023-05-21T07:40:45.947Z,496.00
2023-05-21T07:41:45.745Z,496.00
2023-05-21T07:42:46.931Z,495.00
2023-05-21T07:43:45.852Z,499.00
2023-05-21T07:44:46.142Z,499.00
2023-05-21T07:45:46.071Z,499.00
2023-05-21T07:46:46.169Z,501.00
2023-05-21T07:47:46.230Z,501.00
2023-05-21T07:48:46.152Z,502.00
2023-05-21T07:49:46.329Z,501.00
2023-05-21T07:50:46.288Z,500.00
2023-05-21T07:51:47.264Z,500.00
2023-05-21T07:52:46.365Z,499.00
2023-05-21T07:53:46.226Z,501.00
2023-05-21T07:54:47.498Z,501.00
2023-05-21T07:55:47.294Z,501.00
2023-05-21T07:56:46.559Z,501.00
2023-05-21T07:57:46.539Z,502.00
2023-05-21T07:58:47.480Z,501.00
2023-05-21T07:59:46.647Z,500.00
2023-05-21T08:00:46.554Z,498.00
2023-05-21T08:01:47.565Z,499.00
2023-05-21T08:02:47.628Z,499.00
2023-05-21T08:03:46.620Z,498.00
2023-05-21T08:04:46.652Z,498.00
2023-05-21T08:05:47.837Z,497.00
2023-05-21T08:06:46.658Z,498.00
2023-05-21T08:07:46.766Z,496.00
2023-05-21T08:08:46.677Z,495.00
2023-05-21T08:09:46.770Z,494.00
2023-05-21T08:10:46.777Z,493.00
2023-05-21T08:11:46.730Z,493.00
2023-05-21T08:12:46.744Z,495.00
2023-05-21T08:13:48.048Z,498.00
2023-05-21T08:14:47.115Z,497.00
2023-05-21T08:15:49.069Z,496.00
2023-05-21T08:16:48.109Z,496.00
2023-05-21T08:17:48.152Z,497.00
2023-05-21T08:18:47.832Z,497.00
2023-05-21T08:19:47.869Z,498.00
2023-05-21T08:20:47.860Z,495.00
2023-05-21T08:21:47.833Z,494.00
2023-05-21T08:22:46.875Z,493.00
2023-05-21T08:23:47.950Z,494.00
2023-05-21T08:24:48.056Z,494.00
2023-05-21T08:25:46.782Z,493.00
2023-05-21T08:26:46.759Z,494.00
2023-05-21T08:27:47.782Z,491.00
2023-05-21T08:28:47.763Z,491.00
2023-05-21T08:29:47.775Z,489.00
2023-05-21T08:30:46.728Z,487.00
2023-05-21T08:31:46.942Z,490.00
2023-05-21T08:32:46.804Z,491.00
2023-05-21T08:33:46.715Z,493.00
2023-05-21T08:34:47.854Z,495.00
2023-05-21T08:35:47.760Z,494.00
2023-05-21T08:36:47.700Z,495.00
2023-05-21T08:37:47.684Z,493.00
2023-05-21T08:38:47.677Z,492.00
2023-05-21T08:39:46.704Z,490.00
2023-05-21T08:40:46.760Z,491.00
2023-05-21T08:41:46.886Z,492.00
2023-05-21T08:42:47.841Z,492.00
2023-05-21T08:43:48.588Z,489.00
2023-05-21T08:44:47.629Z,491.00
2023-05-21T08:45:47.881Z,491.00
2023-05-21T08:46:46.632Z,490.00
2023-05-21T08:47:46.665Z,491.00
2023-05-21T08:48:47.814Z,489.00
2023-05-21T08:49:47.616Z,488.00
2023-05-21T08:50:46.617Z,489.00
2023-05-21T08:51:46.594Z,487.00
2023-05-21T08:52:46.679Z,488.00
2023-05-21T08:53:47.550Z,484.00
2023-05-21T08:54:47.734Z,487.00
2023-05-21T08:55:46.713Z,489.00
2023-05-21T08:56:46.543Z,489.00
2023-05-21T08:57:46.528Z,487.00
2023-05-21T08:58:47.646Z,489.00
2023-05-21T08:59:47.528Z,488.00
2023-05-21T09:00:46.760Z,489.00
2023-05-21T09:01:47.610Z,491.00
2023-05-21T09:02:46.668Z,491.00
2023-05-21T09:03:46.684Z,490.00
2023-05-21T09:04:46.794Z,490.00
2023-05-21T09:05:47.586Z,484.00
2023-05-21T09:06:46.477Z,483.00
2023-05-21T09:07:47.923Z,486.00
2023-05-21T09:08:46.517Z,487.00
2023-05-21T09:09:46.783Z,486.00
2023-05-21T09:10:46.462Z,487.00
2023-05-21T09:11:47.560Z,486.00
2023-05-21T09:12:47.460Z,488.00
2023-05-21T09:13:47.676Z,489.00
2023-05-21T09:14:46.529Z,487.00
2023-05-21T09:15:46.426Z,486.00
2023-05-21T09:16:46.742Z,486.00
2023-05-21T09:17:46.465Z,488.00
2023-05-21T09:18:47.462Z,489.00
2023-05-21T09:19:46.401Z,487.00
2023-05-21T09:20:46.574Z,490.00
2023-05-21T09:21:46.383Z,493.00
2023-05-21T09:22:47.376Z,491.00
2023-05-21T09:23:47.586Z,492.00
2023-05-21T09:24:46.390Z,493.00
2023-05-21T09:25:47.497Z,493.00
2023-05-21T09:26:47.421Z,492.00
2023-05-21T09:27:46.396Z,490.00
2023-05-21T09:28:46.488Z,493.00
2023-05-21T09:29:46.368Z,494.00
2023-05-21T09:30:47.308Z,494.00
2023-05-21T09:31:47.762Z,492.00
2023-05-21T09:32:47.665Z,490.00
2023-05-21T09:33:47.486Z,489.00
2023-05-21T09:34:46.332Z,489.00
2023-05-21T09:35:47.375Z,490.00
2023-05-21T09:36:46.599Z,493.00
2023-05-21T09:37:46.579Z,492.00
2023-05-21T09:38:47.447Z,492.00
2023-05-21T09:39:47.505Z,493.00
2023-05-21T09:40:46.494Z,493.00
2023-05-21T09:41:47.443Z,491.00
2023-05-21T09:42:46.437Z,492.00
2023-05-21T09:43:46.551Z,494.00
2023-05-21T09:44:47.703Z,496.00
2023-05-21T09:45:47.533Z,495.00
2023-05-21T09:46:47.775Z,497.00
2023-05-21T09:47:46.755Z,495.00
2023-05-21T09:48:46.695Z,494.00
2023-05-21T09:49:47.608Z,493.00
2023-05-21T09:50:46.603Z,495.00
2023-05-21T09:51:46.737Z,495.00
2023-05-21T09:52:47.707Z,495.00
2023-05-21T09:53:47.705Z,494.00
2023-05-21T09:54:46.722Z,495.00
2023-05-21T09:55:46.711Z,496.00
2023-05-21T09:56:46.857Z,494.00
2023-05-21T09:57:48.116Z,492.00
2023-05-21T09:58:46.832Z,493.00
2023-05-21T09:59:46.656Z,493.00
2023-05-21T10:00:47.731Z,495.00
2023-05-21T10:01:46.795Z,493.00
2023-05-21T10:02:47.751Z,492.00
2023-05-21T10:03:50.027Z,493.00
2023-05-21T10:04:46.845Z,493.00
2023-05-21T10:05:46.620Z,492.00
2023-05-21T10:06:46.718Z,493.00
2023-05-21T10:07:46.693Z,494.00
2023-05-21T10:08:47.761Z,494.00
2023-05-21T10:09:46.593Z,494.00
2023-05-21T10:10:47.678Z,493.00
2023-05-21T10:11:47.686Z,495.00
2023-05-21T10:12:47.677Z,494.00
2023-05-21T10:13:46.553Z,495.00
2023-05-21T10:14:47.643Z,494.00
2023-05-21T10:15:50.149Z,496.00
2023-05-21T10:16:46.791Z,497.00
2023-05-21T10:17:47.740Z,496.00
2023-05-21T10:18:47.701Z,496.00
2023-05-21T10:19:46.523Z,497.00
2023-05-21T10:20:47.804Z,498.00
2023-05-21T10:21:47.505Z,500.00
2023-05-21T10:22:46.547Z,499.00
2023-05-21T10:23:47.545Z,500.00
2023-05-21T10:24:47.502Z,500.00
2023-05-21T10:25:46.523Z,500.00
2023-05-21T10:26:46.538Z,498.00
2023-05-21T10:27:46.568Z,498.00
2023-05-21T10:28:46.641Z,495.00
2023-05-21T10:29:46.535Z,494.00
2023-05-21T10:30:47.498Z,494.00
2023-05-21T10:31:46.518Z,494.00
2023-05-21T10:32:47.563Z,492.00
2023-05-21T10:33:46.548Z,491.00
2023-05-21T10:34:46.647Z,490.00
2023-05-21T10:35:46.444Z,491.00
2023-05-21T10:36:46.653Z,492.00
2023-05-21T10:37:46.422Z,494.00
2023-05-21T10:38:46.603Z,496.00
2023-05-21T10:39:46.393Z,494.00
2023-05-21T10:40:46.399Z,497.00
2023-05-21T10:41:46.411Z,495.00
2023-05-21T10:42:46.556Z,496.00
2023-05-21T10:43:46.503Z,496.00
2023-05-21T10:44:47.429Z,496.00
2023-05-21T10:45:47.437Z,495.00
2023-05-21T10:46:46.352Z,495.00
2023-05-21T10:47:46.466Z,497.00
2023-05-21T10:48:47.381Z,497.00
2023-05-21T10:49:47.487Z,498.00
2023-05-21T10:50:46.422Z,497.00
2023-05-21T10:51:47.495Z,498.00
2023-05-21T10:52:46.477Z,498.00
2023-05-21T10:53:47.623Z,499.00
2023-05-21T10:54:47.655Z,500.00
2023-05-21T10:55:47.598Z,497.00
2023-05-21T10:56:46.650Z,497.00
2023-05-21T10:57:46.653Z,496.00
2023-05-21T10:58:46.844Z,496.00
2023-05-21T10:59:47.708Z,497.00
2023-05-21T11:00:46.828Z,498.00
2023-05-21T11:01:47.858Z,498.00
2023-05-21T11:02:47.911Z,497.00
2023-05-21T11:03:47.895Z,497.00
2023-05-21T11:04:47.997Z,497.00
2023-05-21T11:05:48.006Z,499.00
2023-05-21T11:06:47.984Z,502.00
2023-05-21T11:07:48.077Z,500.00
2023-05-21T11:08:48.040Z,498.00
2023-05-21T11:09:48.236Z,498.00
2023-05-21T11:10:47.097Z,498.00
2023-05-21T11:11:48.169Z,497.00
2023-05-21T11:12:47.177Z,498.00
2023-05-21T11:13:47.179Z,500.00
2023-05-21T11:14:48.242Z,501.00
2023-05-21T11:15:47.302Z,497.00
2023-05-21T11:16:47.347Z,498.00
2023-05-21T11:17:47.387Z,497.00
2023-05-21T11:18:47.477Z,497.00
2023-05-21T11:19:47.552Z,501.00
2023-05-21T11:20:47.414Z,503.00
2023-05-21T11:21:47.431Z,503.00
2023-05-21T11:22:48.465Z,505.00
2023-05-21T11:23:48.497Z,504.00
2023-05-21T11:24:50.568Z,503.00
2023-05-21T11:25:47.568Z,501.00
2023-05-21T11:26:48.523Z,504.00
2023-05-21T11:27:48.531Z,505.00
2023-05-21T11:28:48.512Z,502.00
2023-05-21T11:29:48.495Z,499.00
2023-05-21T11:30:48.562Z,499.00
2023-05-21T11:31:48.691Z,500.00
2023-05-21T11:32:47.598Z,500.00
2023-05-21T11:33:47.671Z,501.00
2023-05-21T11:34:48.606Z,500.00
2023-05-21T11:35:48.532Z,502.00
2023-05-21T11:36:47.550Z,502.00
2023-05-21T11:37:48.442Z,501.00
2023-05-21T11:38:48.528Z,500.00
2023-05-21T11:39:47.433Z,499.00
2023-05-21T11:40:47.423Z,499.00
2023-05-21T11:41:47.651Z,497.00
2023-05-21T11:42:47.625Z,496.00
2023-05-21T11:43:48.604Z,499.00
2023-05-21T11:44:47.409Z,499.00
2023-05-21T11:45:48.748Z,498.00
2023-05-21T11:46:48.689Z,497.00
2023-05-21T11:47:47.411Z,496.00
2023-05-21T11:48:47.525Z,494.00
2023-05-21T11:49:47.458Z,492.00
2023-05-21T11:50:48.469Z,495.00
2023-05-21T11:51:48.405Z,497.00
2023-05-21T11:52:48.345Z,500.00
2023-05-21T11:53:47.366Z,500.00
2023-05-21T11:54:47.317Z,499.00
2023-05-21T11:55:48.321Z,499.00
2023-05-21T11:56:48.311Z,499.00
2023-05-21T11:57:48.561Z,499.00
2023-05-21T11:58:48.286Z,498.00
2023-05-21T11:59:47.338Z,497.00
2023-05-21T12:00:48.804Z,501.00
2023-05-21T12:01:47.435Z,498.00
2023-05-21T12:02:48.711Z,496.00
2023-05-21T12:03:47.655Z,495.00
2023-05-21T12:04:47.668Z,495.00
2023-05-21T12:05:49.026Z,494.00
2023-05-21T12:06:47.647Z,497.00
2023-05-21T12:07:47.806Z,498.00
2023-05-21T12:08:47.733Z,495.00
2023-05-21T12:09:48.731Z,497.00
2023-05-21T12:10:49.066Z,498.00
2023-05-21T12:11:48.814Z,498.00
2023-05-21T12:12:55.806Z,500.00
2023-05-21T12:13:48.906Z,497.00
2023-05-21T12:14:48.859Z,495.00
2023-05-21T12:15:48.933Z,494.00
2023-05-21T12:16:49.203Z,493.00
2023-05-21T12:17:47.962Z,492.00
2023-05-21T12:18:47.967Z,495.00
2023-05-21T12:19:47.820Z,495.00
2023-05-21T12:20:48.940Z,494.00
2023-05-21T12:21:48.961Z,494.00
2023-05-21T12:22:48.859Z,493.00
2023-05-21T12:23:47.957Z,495.00
2023-05-21T12:24:49.049Z,494.00
2023-05-21T12:25:49.005Z,494.00
2023-05-21T12:26:47.919Z,492.00
2023-05-21T12:27:49.163Z,493.00
2023-05-21T12:28:48.212Z,492.00
2023-05-21T12:29:49.019Z,489.00